sensor_id;sensor_type;location;lat;lon;timestamp;temperature;humidity
3818;DHT22;1924;48.078;11.516;2022-08-11T00:01:44;18.40;74.70
3818;DHT22;1924;48.078;11.516;2022-08-11T00:04:22;18.30;74.00
3818;DHT22;1924;48.078;11.516;2022-08-11T00:06:50;18.30;75.00
3818;DHT22;1924;48.078;11.516;2022-08-11T00:09:19;18.20;75.50
3818;DHT22;1924;48.078;11.516;2022-08-11T00:11:50;18.30;75.40
3818;DHT22;1924;48.078;11.516;2022-08-11T00:14:19;18.20;75.40
3818;DHT22;1924;48.078;11.516;2022-08-11T00:16:53;18.20;75.20
3818;DHT22;1924;48.078;11.516;2022-08-11T00:19:23;18.10;75.50
3818;DHT22;1924;48.078;11.516;2022-08-11T00:21:50;18.00;76.00
3818;DHT22;1924;48.078;11.516;2022-08-11T00:24:19;18.00;76.00
3818;DHT22;1924;48.078;11.516;2022-08-11T00:26:50;18.10;76.20
3818;DHT22;1924;48.078;11.516;2022-08-11T00:29:17;18.10;75.90
3818;DHT22;1924;48.078;11.516;2022-08-11T00:31:47;18.00;75.70
3818;DHT22;1924;48.078;11.516;2022-08-11T00:34:17;17.70;75.60
3818;DHT22;1924;48.078;11.516;2022-08-11T00:36:48;17.70;76.60
3818;DHT22;1924;48.078;11.516;2022-08-11T00:39:19;17.60;76.90
3818;DHT22;1924;48.078;11.516;2022-08-11T00:42:00;17.60;77.40
3818;DHT22;1924;48.078;11.516;2022-08-11T00:44:36;17.60;77.20
3818;DHT22;1924;48.078;11.516;2022-08-11T00:47:17;17.60;77.00
3818;DHT22;1924;48.078;11.516;2022-08-11T00:49:57;17.50;76.80
3818;DHT22;1924;48.078;11.516;2022-08-11T00:52:43;17.60;77.70
3818;DHT22;1924;48.078;11.516;2022-08-11T00:55:38;17.60;77.80
3818;DHT22;1924;48.078;11.516;2022-08-11T01:01:45;17.50;77.90
3818;DHT22;1924;48.078;11.516;2022-08-11T01:04:38;17.50;78.50
3818;DHT22;1924;48.078;11.516;2022-08-11T01:07:55;17.50;78.20
3818;DHT22;1924;48.078;11.516;2022-08-11T01:11:01;17.50;78.30
3818;DHT22;1924;48.078;11.516;2022-08-11T01:14:09;17.40;78.30
3818;DHT22;1924;48.078;11.516;2022-08-11T01:17:02;17.20;79.50
3818;DHT22;1924;48.078;11.516;2022-08-11T01:19:55;17.30;79.70
3818;DHT22;1924;48.078;11.516;2022-08-11T01:22:58;17.20;79.40
3818;DHT22;1924;48.078;11.516;2022-08-11T01:29:00;17.00;80.10
3818;DHT22;1924;48.078;11.516;2022-08-11T01:35:10;17.00;80.50
3818;DHT22;1924;48.078;11.516;2022-08-11T04:05:48;15.90;85.80
3818;DHT22;1924;48.078;11.516;2022-08-11T04:12:10;15.70;86.70
3818;DHT22;1924;48.078;11.516;2022-08-11T04:15:03;15.70;86.70
3818;DHT22;1924;48.078;11.516;2022-08-11T04:18:42;15.80;86.80
3818;DHT22;1924;48.078;11.516;2022-08-11T04:21:25;15.80;86.80
3818;DHT22;1924;48.078;11.516;2022-08-11T04:24:25;15.70;87.00
3818;DHT22;1924;48.078;11.516;2022-08-11T04:27:11;15.80;87.10
3818;DHT22;1924;48.078;11.516;2022-08-11T04:29:56;15.80;86.80
3818;DHT22;1924;48.078;11.516;2022-08-11T04:32:45;15.80;86.90
3818;DHT22;1924;48.078;11.516;2022-08-11T04:35:29;15.90;86.90
3818;DHT22;1924;48.078;11.516;2022-08-11T04:38:29;15.90;87.00
3818;DHT22;1924;48.078;11.516;2022-08-11T04:44:31;15.90;87.00
3818;DHT22;1924;48.078;11.516;2022-08-11T04:47:18;15.60;87.30
3818;DHT22;1924;48.078;11.516;2022-08-11T04:50:16;15.40;88.60
3818;DHT22;1924;48.078;11.516;2022-08-11T04:53:25;15.50;89.40
3818;DHT22;1924;48.078;11.516;2022-08-11T04:56:16;15.70;88.90
3818;DHT22;1924;48.078;11.516;2022-08-11T05:03:06;15.70;88.40
3818;DHT22;1924;48.078;11.516;2022-08-11T05:05:56;15.70;89.60
3818;DHT22;1924;48.078;11.516;2022-08-11T05:09:02;15.70;89.60
3818;DHT22;1924;48.078;11.516;2022-08-11T05:11:52;15.70;90.00
3818;DHT22;1924;48.078;11.516;2022-08-11T05:14:33;15.80;89.60
3818;DHT22;1924;48.078;11.516;2022-08-11T05:17:28;15.90;89.70
3818;DHT22;1924;48.078;11.516;2022-08-11T05:20:15;15.90;90.00
3818;DHT22;1924;48.078;11.516;2022-08-11T05:23:04;16.00;89.70
3818;DHT22;1924;48.078;11.516;2022-08-11T05:25:54;16.00;90.00
3818;DHT22;1924;48.078;11.516;2022-08-11T05:28:42;16.10;89.70
3818;DHT22;1924;48.078;11.516;2022-08-11T05:31:34;16.10;89.50
3818;DHT22;1924;48.078;11.516;2022-08-11T05:34:21;16.10;90.30
3818;DHT22;1924;48.078;11.516;2022-08-11T05:37:10;16.20;90.20
3818;DHT22;1924;48.078;11.516;2022-08-11T05:39:44;16.20;88.20
3818;DHT22;1924;48.078;11.516;2022-08-11T05:42:38;16.30;90.30
3818;DHT22;1924;48.078;11.516;2022-08-11T05:45:28;16.20;89.20
3818;DHT22;1924;48.078;11.516;2022-08-11T05:48:16;16.30;90.40
3818;DHT22;1924;48.078;11.516;2022-08-11T05:51:01;16.40;90.30
3818;DHT22;1924;48.078;11.516;2022-08-11T05:53:50;16.50;90.20
3818;DHT22;1924;48.078;11.516;2022-08-11T05:56:42;16.50;89.80
3818;DHT22;1924;48.078;11.516;2022-08-11T05:59:13;16.50;88.70
3818;DHT22;1924;48.078;11.516;2022-08-11T06:01:42;16.40;87.60
3818;DHT22;1924;48.078;11.516;2022-08-11T06:04:17;16.50;88.70
3818;DHT22;1924;48.078;11.516;2022-08-11T06:06:54;16.60;87.20
3818;DHT22;1924;48.078;11.516;2022-08-11T06:09:30;16.70;89.10
3818;DHT22;1924;48.078;11.516;2022-08-11T06:12:01;16.80;88.30
3818;DHT22;1924;48.078;11.516;2022-08-11T06:14:30;16.90;89.10
3818;DHT22;1924;48.078;11.516;2022-08-11T06:17:00;17.00;89.00
3818;DHT22;1924;48.078;11.516;2022-08-11T06:19:33;17.00;87.20
3818;DHT22;1924;48.078;11.516;2022-08-11T06:22:02;17.10;87.00
3818;DHT22;1924;48.078;11.516;2022-08-11T06:24:30;17.20;86.70
3818;DHT22;1924;48.078;11.516;2022-08-11T06:26:58;17.20;85.40
